KTLH/TLH METAR and TAF weather

Enter ICAO airport designator
Station Type Date Time Source
KTLH METAR 2020/04/04 21:53 UTC NOAA

KTLH 042153Z 19009KT 10SM SCT040 BKN110 27/11 A2988 RMK AO2 SLP117 T02720111


Station Type Date Time Source
KTLH Decoded METAR 2020/04/04 21:53 UTC NOAA

TALLAHASSEE REGIONAL AIRPORT , FL, United States (KTLH) 30-24N 84-21W 16M
Apr 04, 2020 - 05:53 PM EDT / 2020.04.04 2153 UTC
Wind: from the S (190 degrees) at 10 MPH (9 KT):0
Visibility: 10 mile(s):0
Sky conditions: mostly cloudy
Temperature: 81.0 F (27.2 C)
Dew Point: 52.0 F (11.1 C)
Relative Humidity: 36%
Pressure (altimeter): 29.88 in. Hg (1011 hPa)
ob: KTLH 042153Z 19009KT 10SM SCT040 BKN110 27/11 A2988 RMK AO2 SLP117 T02720111
cycle: 22

Station Type Date Time Source
KTLH TAF 2020/04/04 18:22 UTC NOAA

TAF KTLH 041720Z 0418/0518 32005KT P6SM SCT200
FM050200 00000KT P6SM BKN250
FM051100 VRB04KT P6SM BKN060

Example: see airport list